createdAt,value
2022-07-29T00:00:57.800Z,28.35
2022-07-29T00:03:24.570Z,28.50
2022-07-29T00:05:53.146Z,28.52
2022-07-29T00:08:20.107Z,28.87
2022-07-29T00:10:46.747Z,28.73
2022-07-29T00:13:13.430Z,28.90
2022-07-29T00:15:40.118Z,28.83
2022-07-29T00:18:06.723Z,28.92
2022-07-29T00:20:33.345Z,29.00
2022-07-29T00:22:59.929Z,28.69
2022-07-29T00:25:26.688Z,28.54
2022-07-29T00:27:53.273Z,28.60
2022-07-29T00:30:19.895Z,29.00
2022-07-29T00:32:46.474Z,29.01
2022-07-29T00:35:31.780Z,29.07
2022-07-29T00:38:00.194Z,29.16
2022-07-29T00:40:28.705Z,29.24
2022-07-29T00:42:55.326Z,29.01
2022-07-29T00:45:23.171Z,29.08
2022-07-29T00:47:49.978Z,29.05
2022-07-29T00:50:16.585Z,28.93
2022-07-29T00:52:43.407Z,29.34
2022-07-29T00:55:11.984Z,29.50
2022-07-29T00:57:38.749Z,29.30
2022-07-29T01:00:18.035Z,29.31
2022-07-29T01:02:45.517Z,29.54
2022-07-29T01:05:12.360Z,29.36
2022-07-29T01:07:38.970Z,29.35
2022-07-29T01:10:05.939Z,29.36
2022-07-29T01:12:35.319Z,29.35
2022-07-29T01:15:02.794Z,29.44
2022-07-29T01:17:57.266Z,29.20
2022-07-29T01:20:47.245Z,29.60
2022-07-29T01:23:32.052Z,29.80
2022-07-29T01:26:20.486Z,30.01
2022-07-29T01:29:16.380Z,29.83
2022-07-29T01:31:59.366Z,30.12
2022-07-29T01:34:51.653Z,29.75
2022-07-29T01:37:46.372Z,29.91
2022-07-29T01:40:19.647Z,30.06
2022-07-29T01:42:49.101Z,29.88
2022-07-29T01:45:18.215Z,30.42
2022-07-29T01:47:48.659Z,30.27
2022-07-29T01:50:17.547Z,30.37
2022-07-29T01:53:07.920Z,30.44
2022-07-29T01:55:39.896Z,30.48
2022-07-29T01:58:06.851Z,30.20
2022-07-29T02:00:34.353Z,30.28
2022-07-29T02:03:03.865Z,30.32
2022-07-29T02:05:30.584Z,30.32
2022-07-29T02:07:57.282Z,30.37
2022-07-29T02:10:26.215Z,30.26
2022-07-29T02:12:52.913Z,30.30
2022-07-29T02:15:19.639Z,30.60
2022-07-29T02:17:53.535Z,30.70
2022-07-29T02:20:20.157Z,30.92
2022-07-29T02:22:46.741Z,30.98
2022-07-29T02:25:13.893Z,31.06
2022-07-29T02:27:40.939Z,31.23
2022-07-29T02:30:11.067Z,31.30
2022-07-29T02:32:38.271Z,31.21
2022-07-29T02:35:07.958Z,31.48
2022-07-29T02:37:34.567Z,31.36
2022-07-29T02:40:01.184Z,31.67
2022-07-29T02:42:27.840Z,31.65
2022-07-29T02:44:54.448Z,31.71
2022-07-29T02:47:43.720Z,31.92
2022-07-29T02:50:29.122Z,31.99
2022-07-29T02:53:00.151Z,31.85
2022-07-29T02:55:41.943Z,31.90
2022-07-29T02:58:14.600Z,31.93
2022-07-29T03:00:41.411Z,31.88
2022-07-29T03:03:10.356Z,32.41
2022-07-29T03:05:36.939Z,32.59
2022-07-29T03:08:06.220Z,32.58
2022-07-29T03:10:32.894Z,32.66
2022-07-29T03:12:59.586Z,32.82
2022-07-29T03:15:26.259Z,32.50
2022-07-29T03:17:52.930Z,32.73
2022-07-29T03:20:19.606Z,32.77
2022-07-29T03:22:48.102Z,32.77
2022-07-29T03:25:16.035Z,32.74
2022-07-29T03:27:43.133Z,32.96
2022-07-29T03:30:10.317Z,32.89
2022-07-29T03:32:37.187Z,33.04
2022-07-29T03:35:05.144Z,32.98
2022-07-29T03:37:32.037Z,33.08
2022-07-29T03:39:58.923Z,33.15
2022-07-29T03:42:32.429Z,33.38
2022-07-29T03:45:02.866Z,33.38
2022-07-29T03:47:47.992Z,33.36
2022-07-29T03:50:16.743Z,33.57
2022-07-29T03:52:43.601Z,33.32
2022-07-29T03:55:12.186Z,33.41
2022-07-29T03:57:38.791Z,33.33
2022-07-29T04:00:06.482Z,33.52
2022-07-29T04:02:33.551Z,33.58
2022-07-29T04:05:00.605Z,33.28
2022-07-29T04:07:27.223Z,33.57
2022-07-29T04:09:53.865Z,33.54
2022-07-29T04:12:22.033Z,33.78
2022-07-29T04:14:48.653Z,33.85
2022-07-29T04:17:15.293Z,34.04
2022-07-29T04:19:41.913Z,34.04
2022-07-29T04:22:08.566Z,33.98
2022-07-29T04:24:35.531Z,33.91
2022-07-29T04:27:02.163Z,34.22
2022-07-29T04:29:28.792Z,34.13
2022-07-29T04:31:55.420Z,35.71
2022-07-29T04:34:22.237Z,34.18
2022-07-29T04:36:48.833Z,33.92
2022-07-29T04:39:20.641Z,33.68
2022-07-29T04:41:50.271Z,33.49
2022-07-29T04:44:17.361Z,33.86
2022-07-29T04:46:45.689Z,33.99
2022-07-29T04:49:12.604Z,34.11
2022-07-29T04:51:39.249Z,33.85
2022-07-29T04:54:05.895Z,33.73
2022-07-29T04:56:32.766Z,33.72
2022-07-29T04:58:59.409Z,33.78
2022-07-29T05:01:26.097Z,33.59
2022-07-29T05:03:57.022Z,33.34
2022-07-29T05:06:26.553Z,33.06
2022-07-29T05:08:53.136Z,33.02
2022-07-29T05:11:22.472Z,33.03
2022-07-29T05:13:50.971Z,32.91
2022-07-29T05:16:17.669Z,32.89
2022-07-29T05:18:44.399Z,32.55
2022-07-29T05:21:11.026Z,32.77
2022-07-29T05:23:37.624Z,32.36
2022-07-29T05:26:04.233Z,32.33
2022-07-29T05:28:34.858Z,32.29
2022-07-29T05:31:01.650Z,31.99
2022-07-29T05:33:34.813Z,31.67
2022-07-29T05:36:03.014Z,31.45
2022-07-29T05:38:29.882Z,30.99
2022-07-29T05:40:58.674Z,30.93
2022-07-29T05:43:25.291Z,31.38
2022-07-29T05:45:51.916Z,30.86
2022-07-29T05:48:18.558Z,30.63
2022-07-29T05:50:45.172Z,30.40
2022-07-29T05:53:19.967Z,29.82
2022-07-29T05:55:48.023Z,29.58
2022-07-29T05:58:14.687Z,29.84
2022-07-29T06:00:41.302Z,29.71
2022-07-29T06:03:07.941Z,29.03
2022-07-29T06:05:34.545Z,28.61
2022-07-29T06:08:01.206Z,28.61
2022-07-29T06:10:27.909Z,28.31
2022-07-29T06:12:54.648Z,28.08
2022-07-29T06:15:21.273Z,28.77
2022-07-29T06:18:00.153Z,28.33
2022-07-29T06:20:30.791Z,27.64
2022-07-29T06:22:57.752Z,27.05
2022-07-29T06:25:24.380Z,27.28
2022-07-29T06:27:50.981Z,26.91
2022-07-29T06:30:17.729Z,26.37
2022-07-29T06:32:44.332Z,26.77
2022-07-29T06:35:39.237Z,26.53
2022-07-29T06:37:59.619Z,26.49
2022-07-29T06:40:45.527Z,26.28
2022-07-29T06:43:12.266Z,26.25
2022-07-29T06:45:42.355Z,25.95
2022-07-29T06:48:09.668Z,25.23
2022-07-29T06:50:36.372Z,26.05
2022-07-29T06:53:02.997Z,25.33
2022-07-29T06:55:29.595Z,25.44
2022-07-29T06:57:56.250Z,24.86
2022-07-29T07:00:22.842Z,24.26
2022-07-29T07:02:49.560Z,24.15
2022-07-29T07:05:16.234Z,23.73
2022-07-29T07:07:42.817Z,23.68
2022-07-29T07:10:09.700Z,23.71
2022-07-29T07:12:36.346Z,22.76
2022-07-29T07:15:03.150Z,22.72
2022-07-29T07:17:30.010Z,21.67
2022-07-29T07:19:56.605Z,20.93
2022-07-29T07:22:23.205Z,19.81
2022-07-29T07:24:49.921Z,19.61
2022-07-29T07:27:16.525Z,17.88
2022-07-29T07:29:44.316Z,17.35
2022-07-29T07:32:11.238Z,17.14
2022-07-29T07:34:39.059Z,16.47
2022-07-29T07:37:06.197Z,16.64
2022-07-29T07:39:32.824Z,16.51
2022-07-29T07:41:59.576Z,16.70
2022-07-29T07:44:26.197Z,15.79
2022-07-29T07:46:53.253Z,15.84
2022-07-29T07:49:21.327Z,15.75
2022-07-29T07:51:50.657Z,15.80
2022-07-29T07:54:18.343Z,15.52
2022-07-29T07:56:49.979Z,15.82
2022-07-29T07:59:19.578Z,15.28
2022-07-29T08:01:54.666Z,14.62
2022-07-29T08:04:27.426Z,14.43
2022-07-29T08:06:57.730Z,14.31
2022-07-29T08:09:29.687Z,15.27
2022-07-29T08:11:57.700Z,13.51
2022-07-29T08:14:24.332Z,13.48
2022-07-29T08:16:52.200Z,13.34
2022-07-29T08:19:18.970Z,13.09
2022-07-29T08:21:45.536Z,12.25
2022-07-29T08:24:31.075Z,12.73
2022-07-29T08:26:57.663Z,13.35
2022-07-29T08:29:24.280Z,12.69
2022-07-29T08:31:51.194Z,12.17
2022-07-29T08:34:18.030Z,11.69
2022-07-29T08:36:44.631Z,11.88
2022-07-29T08:39:16.880Z,11.45
2022-07-29T08:41:56.990Z,11.75
2022-07-29T08:44:30.416Z,12.02
2022-07-29T08:46:57.886Z,11.56
2022-07-29T08:49:24.613Z,12.14
2022-07-29T08:51:51.320Z,11.44
2022-07-29T08:54:18.540Z,11.80
2022-07-29T08:56:45.529Z,12.24
2022-07-29T08:59:12.199Z,11.17
2022-07-29T09:01:45.242Z,10.69
2022-07-29T09:04:12.548Z,10.72
2022-07-29T09:06:43.125Z,11.38
2022-07-29T09:09:10.192Z,12.55
2022-07-29T09:11:36.829Z,12.68
2022-07-29T09:14:03.505Z,12.01
2022-07-29T09:16:53.057Z,12.45
2022-07-29T09:19:24.220Z,11.62
2022-07-29T09:21:59.774Z,11.75
2022-07-29T09:24:27.108Z,11.81
2022-07-29T09:26:53.937Z,11.91
2022-07-29T09:29:22.897Z,11.80
2022-07-29T09:31:51.249Z,12.02
2022-07-29T09:34:29.138Z,11.41
2022-07-29T09:36:56.377Z,11.00
2022-07-29T09:39:38.493Z,11.00
2022-07-29T09:42:06.338Z,11.20
2022-07-29T09:44:43.477Z,11.06
2022-07-29T09:47:10.219Z,10.73
2022-07-29T09:50:00.302Z,10.81
2022-07-29T09:52:27.787Z,10.94
2022-07-29T09:54:57.213Z,11.36
2022-07-29T09:57:31.189Z,10.75
2022-07-29T10:00:09.074Z,11.82
2022-07-29T10:02:36.634Z,11.17
2022-07-29T10:05:05.407Z,10.95
2022-07-29T10:07:51.879Z,11.18
2022-07-29T10:10:34.174Z,11.57
2022-07-29T10:13:07.125Z,11.82
2022-07-29T10:15:44.755Z,11.40
2022-07-29T10:18:12.409Z,11.93
2022-07-29T10:20:39.183Z,12.18
2022-07-29T10:23:05.891Z,12.27
2022-07-29T10:25:32.620Z,11.51
2022-07-29T10:27:59.328Z,11.96
2022-07-29T10:30:26.366Z,11.43
2022-07-29T10:32:58.912Z,12.44
2022-07-29T10:35:56.760Z,13.15
2022-07-29T10:38:38.470Z,13.29
2022-07-29T10:41:32.398Z,13.08
2022-07-29T10:44:23.248Z,12.14
2022-07-29T10:46:51.586Z,12.59
2022-07-29T10:49:18.957Z,11.84
2022-07-29T10:51:58.658Z,11.47
2022-07-29T10:54:42.414Z,11.18
2022-07-29T10:57:17.680Z,11.09
2022-07-29T10:59:46.171Z,10.42
2022-07-29T11:02:41.720Z,11.16
2022-07-29T11:05:12.912Z,10.87
2022-07-29T11:07:45.614Z,11.08
2022-07-29T11:10:12.958Z,11.24
2022-07-29T11:12:47.850Z,11.75
2022-07-29T11:15:25.253Z,11.97
2022-07-29T11:17:55.262Z,12.06
2022-07-29T11:20:49.707Z,12.14
2022-07-29T11:23:25.811Z,11.91
2022-07-29T11:26:10.976Z,12.48
2022-07-29T11:28:52.776Z,12.30
2022-07-29T11:31:33.678Z,12.15
2022-07-29T11:34:20.943Z,12.49
2022-07-29T11:37:12.576Z,11.83
2022-07-29T11:39:40.452Z,12.38
2022-07-29T11:42:32.211Z,12.39
2022-07-29T11:45:44.312Z,12.50
2022-07-29T11:47:54.597Z,13.05
2022-07-29T11:50:37.159Z,13.33
2022-07-29T11:53:10.964Z,13.55
2022-07-29T11:55:38.401Z,13.33
2022-07-29T11:58:21.835Z,13.52
2022-07-29T12:00:52.118Z,13.73
2022-07-29T12:03:35.502Z,13.86
2022-07-29T12:06:07.564Z,13.53
2022-07-29T12:08:40.739Z,13.69
2022-07-29T12:11:16.384Z,13.96
2022-07-29T12:13:43.068Z,13.95
2022-07-29T12:16:09.702Z,14.37
2022-07-29T12:18:41.268Z,14.04
2022-07-29T12:21:09.278Z,13.97
2022-07-29T12:23:39.238Z,14.02
2022-07-29T12:26:07.591Z,13.54
2022-07-29T12:28:40.485Z,13.21
2022-07-29T12:31:08.272Z,13.15
2022-07-29T12:33:35.973Z,13.10
2022-07-29T12:36:07.621Z,13.40
2022-07-29T12:38:37.929Z,13.07
2022-07-29T12:41:04.929Z,13.16
2022-07-29T12:43:31.857Z,13.12
2022-07-29T12:45:58.465Z,13.65
2022-07-29T12:48:38.756Z,13.39
2022-07-29T12:51:07.034Z,13.46
2022-07-29T12:53:33.675Z,13.77
2022-07-29T12:56:07.942Z,13.22
2022-07-29T12:58:42.701Z,13.57
2022-07-29T13:01:18.080Z,13.29
2022-07-29T13:03:59.690Z,13.29
2022-07-29T13:06:29.211Z,13.46
2022-07-29T13:09:04.908Z,13.35
2022-07-29T13:11:33.526Z,13.47
2022-07-29T13:14:05.814Z,13.37
2022-07-29T13:16:33.792Z,13.12
2022-07-29T13:19:13.136Z,13.38
2022-07-29T13:21:40.067Z,13.43
2022-07-29T13:24:07.432Z,13.49
2022-07-29T13:26:34.025Z,13.26
2022-07-29T13:29:00.604Z,13.34
2022-07-29T13:31:27.368Z,13.68
2022-07-29T13:33:54.039Z,14.01
2022-07-29T13:36:21.368Z,14.06
2022-07-29T13:38:48.014Z,14.04
2022-07-29T13:41:14.588Z,13.75
2022-07-29T13:43:41.209Z,13.72
2022-07-29T13:46:07.863Z,13.57
2022-07-29T13:48:34.732Z,13.47
2022-07-29T13:51:01.345Z,13.42
2022-07-29T13:53:29.660Z,13.76
2022-07-29T13:55:56.354Z,14.07
2022-07-29T13:58:22.997Z,14.10
2022-07-29T14:00:49.701Z,14.07
2022-07-29T14:03:16.472Z,14.23
2022-07-29T14:05:43.089Z,14.13
2022-07-29T14:08:09.775Z,13.95
2022-07-29T14:10:36.388Z,14.12
2022-07-29T14:13:03.076Z,14.20
2022-07-29T14:15:29.843Z,14.02
2022-07-29T14:17:56.442Z,14.17
2022-07-29T14:20:23.029Z,14.46
2022-07-29T14:22:49.930Z,14.47
2022-07-29T14:25:16.865Z,14.26
2022-07-29T14:27:44.231Z,14.65
2022-07-29T14:30:11.282Z,14.84
2022-07-29T14:32:37.877Z,14.67
2022-07-29T14:35:05.510Z,14.75
2022-07-29T14:37:40.411Z,14.71
2022-07-29T14:40:08.165Z,14.77
2022-07-29T14:42:34.841Z,14.56
2022-07-29T14:45:01.484Z,14.92
2022-07-29T14:47:28.161Z,15.02
2022-07-29T14:49:55.887Z,14.99
2022-07-29T14:52:22.558Z,14.96
2022-07-29T14:54:49.187Z,14.97
2022-07-29T14:57:15.914Z,15.38
2022-07-29T14:59:42.552Z,15.33
2022-07-29T15:02:09.357Z,15.42
2022-07-29T15:04:36.019Z,15.19
2022-07-29T15:07:02.803Z,14.89
2022-07-29T15:09:29.451Z,15.00
2022-07-29T15:11:56.512Z,14.93
2022-07-29T15:14:23.517Z,14.86
2022-07-29T15:16:50.163Z,14.84
2022-07-29T15:19:19.456Z,15.09
2022-07-29T15:21:48.173Z,15.09
2022-07-29T15:24:19.109Z,14.92
2022-07-29T15:26:46.513Z,15.14
2022-07-29T15:29:13.193Z,15.49
2022-07-29T15:31:39.914Z,14.92
2022-07-29T15:34:08.081Z,15.23
2022-07-29T15:36:52.616Z,15.23
2022-07-29T15:39:20.784Z,15.26
2022-07-29T15:41:47.428Z,15.42
2022-07-29T15:44:14.117Z,15.77
2022-07-29T15:46:59.904Z,15.70
2022-07-29T15:49:47.497Z,15.94
2022-07-29T15:52:15.695Z,15.83
2022-07-29T15:54:42.406Z,15.65
2022-07-29T15:57:10.056Z,15.65
2022-07-29T15:59:36.792Z,15.80
2022-07-29T16:02:03.414Z,15.89
2022-07-29T16:04:29.994Z,15.82
2022-07-29T16:06:57.528Z,15.82
2022-07-29T16:09:24.373Z,16.30
2022-07-29T16:11:53.583Z,16.18
2022-07-29T16:14:20.496Z,16.01
2022-07-29T16:16:47.207Z,16.20
2022-07-29T16:19:13.868Z,16.06
2022-07-29T16:21:40.501Z,16.39
2022-07-29T16:24:07.362Z,16.38
2022-07-29T16:26:34.327Z,16.32
2022-07-29T16:29:01.031Z,16.24
2022-07-29T16:31:27.743Z,16.40
2022-07-29T16:33:55.967Z,16.06
2022-07-29T16:36:23.118Z,16.14
2022-07-29T16:38:49.860Z,16.32
2022-07-29T16:41:16.494Z,16.38
2022-07-29T16:43:43.181Z,16.26
2022-07-29T16:46:13.101Z,16.19
2022-07-29T16:48:45.463Z,16.18
2022-07-29T16:51:14.473Z,16.37
2022-07-29T16:53:41.538Z,16.46
2022-07-29T16:56:11.185Z,16.32
2022-07-29T16:58:43.454Z,16.46
2022-07-29T17:01:10.997Z,16.49
2022-07-29T17:04:00.230Z,16.37
2022-07-29T17:06:27.454Z,16.28
2022-07-29T17:08:54.059Z,16.62
2022-07-29T17:11:20.663Z,16.34
2022-07-29T17:13:47.342Z,16.42
2022-07-29T17:16:13.942Z,16.40
2022-07-29T17:18:40.590Z,16.25
2022-07-29T17:21:07.174Z,16.66
2022-07-29T17:23:33.826Z,16.42
2022-07-29T17:26:00.439Z,16.53
2022-07-29T17:28:27.053Z,16.55
2022-07-29T17:30:53.639Z,16.55
2022-07-29T17:33:20.237Z,16.91
2022-07-29T17:36:05.630Z,16.99
2022-07-29T17:38:32.231Z,16.85
2022-07-29T17:40:58.845Z,16.90
2022-07-29T17:43:25.535Z,17.03
2022-07-29T17:45:52.147Z,17.15
2022-07-29T17:48:19.144Z,17.30
2022-07-29T17:50:46.558Z,17.37
2022-07-29T17:53:15.656Z,17.47
2022-07-29T17:55:45.362Z,17.44
2022-07-29T17:58:12.117Z,17.62
2022-07-29T18:00:39.052Z,17.47
2022-07-29T18:03:05.870Z,17.48
2022-07-29T18:05:32.744Z,17.48
2022-07-29T18:07:59.362Z,17.82
2022-07-29T18:10:25.967Z,17.80
2022-07-29T18:12:52.549Z,17.85
2022-07-29T18:15:19.152Z,17.86
2022-07-29T18:17:56.589Z,18.04
2022-07-29T18:20:25.095Z,18.26
2022-07-29T18:22:51.711Z,17.99
2022-07-29T18:25:18.402Z,18.02
2022-07-29T18:27:45.209Z,18.21
2022-07-29T18:30:11.885Z,18.21
2022-07-29T18:32:38.456Z,18.28
2022-07-29T18:35:06.377Z,18.31
2022-07-29T18:38:01.980Z,18.32
2022-07-29T18:40:25.686Z,18.39
2022-07-29T18:42:53.027Z,18.57
2022-07-29T18:45:19.891Z,18.52
2022-07-29T18:47:49.076Z,18.62
2022-07-29T18:50:16.357Z,18.72
2022-07-29T18:52:42.999Z,18.74
2022-07-29T18:55:09.741Z,18.73
2022-07-29T18:57:54.117Z,18.70
2022-07-29T19:00:23.852Z,19.44
2022-07-29T19:02:50.653Z,19.57
2022-07-29T19:05:17.439Z,19.89
2022-07-29T19:07:44.050Z,20.22
2022-07-29T19:10:11.250Z,20.57
2022-07-29T19:12:37.882Z,20.65
2022-07-29T19:15:04.616Z,21.08
2022-07-29T19:17:31.211Z,21.16
2022-07-29T19:19:57.819Z,21.29
2022-07-29T19:22:24.502Z,21.55
2022-07-29T19:24:51.196Z,21.83
2022-07-29T19:27:17.824Z,22.04
2022-07-29T19:29:44.454Z,22.11
2022-07-29T19:32:11.065Z,22.36
2022-07-29T19:34:38.299Z,22.62
2022-07-29T19:37:05.290Z,22.58
2022-07-29T19:39:35.406Z,22.87
2022-07-29T19:42:03.520Z,22.91
2022-07-29T19:44:30.344Z,23.14
2022-07-29T19:46:59.459Z,23.17
2022-07-29T19:49:26.306Z,23.31
2022-07-29T19:51:53.442Z,23.48
2022-07-29T19:54:20.801Z,23.77
2022-07-29T19:56:47.423Z,23.65
2022-07-29T19:59:14.636Z,23.68
2022-07-29T20:01:41.381Z,23.97
2022-07-29T20:04:08.088Z,24.07
2022-07-29T20:06:34.885Z,24.25
2022-07-29T20:09:01.517Z,24.69
2022-07-29T20:11:29.748Z,24.63
2022-07-29T20:13:56.667Z,25.01
2022-07-29T20:16:23.323Z,25.07
2022-07-29T20:18:52.176Z,25.42
2022-07-29T20:21:18.785Z,25.70
2022-07-29T20:23:45.948Z,25.93
2022-07-29T20:26:12.785Z,26.19
2022-07-29T20:28:40.239Z,26.44
2022-07-29T20:31:07.066Z,26.33
2022-07-29T20:33:33.844Z,26.80
2022-07-29T20:36:00.453Z,26.79
2022-07-29T20:38:28.507Z,26.89
2022-07-29T20:40:58.569Z,27.08
2022-07-29T20:43:26.191Z,27.09
2022-07-29T20:45:52.854Z,27.29
2022-07-29T20:48:19.511Z,27.35
2022-07-29T20:50:47.562Z,27.37
2022-07-29T20:53:19.079Z,27.74
2022-07-29T20:55:45.691Z,27.89
2022-07-29T20:58:12.251Z,27.80
2022-07-29T21:00:38.949Z,27.73
2022-07-29T21:03:05.614Z,27.72
2022-07-29T21:05:32.838Z,27.91
2022-07-29T21:07:59.616Z,28.10
2022-07-29T21:10:26.289Z,28.49
2022-07-29T21:12:52.916Z,28.75
2022-07-29T21:15:21.581Z,28.89
2022-07-29T21:17:48.256Z,28.95
2022-07-29T21:20:15.785Z,29.09
2022-07-29T21:22:42.484Z,29.46
2022-07-29T21:25:09.980Z,29.56
2022-07-29T21:27:55.679Z,29.64
2022-07-29T21:30:22.430Z,29.73
2022-07-29T21:32:49.089Z,29.75
2022-07-29T21:35:30.277Z,29.86
2022-07-29T21:38:02.367Z,29.94
2022-07-29T21:40:30.412Z,30.36
2022-07-29T21:42:57.097Z,30.32
2022-07-29T21:45:23.821Z,30.78
2022-07-29T21:47:50.450Z,30.87
2022-07-29T21:50:17.067Z,31.11
2022-07-29T21:52:43.687Z,31.20
2022-07-29T21:55:10.671Z,31.34
2022-07-29T21:57:38.294Z,31.54
2022-07-29T22:00:05.729Z,31.77
2022-07-29T22:02:32.346Z,31.66
2022-07-29T22:04:58.929Z,31.76
2022-07-29T22:07:25.536Z,31.73
2022-07-29T22:10:12.140Z,31.93
2022-07-29T22:12:38.747Z,32.24
2022-07-29T22:15:05.676Z,32.34
2022-07-29T22:17:32.307Z,32.30
2022-07-29T22:19:59.009Z,32.55
2022-07-29T22:22:25.693Z,32.76
2022-07-29T22:24:52.264Z,33.25
2022-07-29T22:27:18.865Z,33.45
2022-07-29T22:29:45.459Z,33.77
2022-07-29T22:32:12.036Z,33.90
2022-07-29T22:34:38.628Z,33.99
2022-07-29T22:37:05.211Z,34.35
2022-07-29T22:39:31.831Z,34.40
2022-07-29T22:41:58.463Z,34.54
2022-07-29T22:44:25.167Z,34.45
2022-07-29T22:46:51.798Z,34.45
2022-07-29T22:49:18.508Z,34.46
2022-07-29T22:51:45.189Z,34.62
2022-07-29T22:54:11.895Z,34.97
2022-07-29T22:56:38.468Z,35.04
2022-07-29T22:59:05.113Z,35.01
2022-07-29T23:01:38.048Z,35.04
2022-07-29T23:04:05.551Z,34.98
2022-07-29T23:06:32.251Z,35.20
2022-07-29T23:08:58.869Z,35.40
2022-07-29T23:11:25.498Z,35.34
2022-07-29T23:13:52.140Z,35.59
2022-07-29T23:16:26.583Z,35.67
2022-07-29T23:18:54.154Z,35.88
2022-07-29T23:21:23.682Z,35.80
2022-07-29T23:23:50.424Z,35.46
2022-07-29T23:26:17.105Z,35.55
2022-07-29T23:28:46.807Z,35.63
2022-07-29T23:31:13.687Z,35.47
2022-07-29T23:33:41.224Z,35.53
2022-07-29T23:36:07.865Z,35.66
2022-07-29T23:38:34.476Z,35.72
2022-07-29T23:41:02.353Z,35.71
2022-07-29T23:43:28.957Z,35.86
2022-07-29T23:45:56.190Z,36.06
2022-07-29T23:48:24.848Z,36.09
2022-07-29T23:50:51.732Z,36.05
2022-07-29T23:53:18.396Z,36.33
2022-07-29T23:55:45.063Z,36.25
2022-07-29T23:58:11.687Z,36.36
